Teno — A8VP7 — position and weather

sailwx.info

Track history (hours):
 
Tides and Currents Weather Stations Pressure Air Temp Water Temp Dewpoint Dewpoint Depression Visibility Wind Speed Wind Dir Waves Ship Positions

Teno

Last reported at 2017-Aug-27 04:51 UTC. Time now 2017-Sep-19 22:42 UTC.
Position N 31°08' E 032°19'.
Warning: this ship's position is 23 days out of date.

Length 299 m; draft 12.7 m.

Type: Ship (hazmat cat A). MMSI: 636014646.

Date/timePositionNaut miles runAvg speedWind from/ knotsBaromVisibWave heightAir tempDewpointWater temp
2017-Aug-27 04:51N 31°08' E 032°19'3 8.3
2017-Aug-27 04:30N 31°11' E 032°20'3 7.0
2017-Aug-27 04:00N 31°14' E 032°21'912.7
2017-Aug-27 03:18N 31°23' E 032°23'310.1
2017-Aug-27 03:00N 31°26' E 032°24'3 7.0
2017-Aug-27 02:30N 31°25' E 032°20'1 2.3
2017-Aug-27 01:57N 31°24' E 032°19'0 0.0
2017-Aug-26 23:54N 31°24' E 032°19'0 0.0
2017-Aug-26 23:30N 31°24' E 032°19'0 0.0
2017-Aug-26 23:00N 31°24' E 032°19'0 0.0
2017-Aug-26 22:24N 31°24' E 032°19'0 0.0
2017-Aug-26 21:57N 31°24' E 032°19'0 0.0
2017-Aug-26 21:30N 31°24' E 032°19'0 0.0
2017-Aug-26 21:00N 31°24' E 032°19'0 0.0
2017-Aug-26 20:30N 31°24' E 032°19'0 0.0
2017-Aug-26 19:45N 31°24' E 032°19'0 0.1
2017-Aug-26 19:30N 31°24' E 032°19'0 0.0
2017-Aug-26 18:24N 31°24' E 032°19'0 0.0
2017-Aug-26 18:00N 31°24' E 032°19'0 0.0
2017-Aug-26 17:30N 31°24' E 032°19'0 0.0
2017-Aug-26 17:00N 31°24' E 032°19'0 0.0
2017-Aug-26 15:00N 31°24' E 032°19'0 0.0
2017-Aug-26 13:54N 31°24' E 032°19'0 0.0
2017-Aug-26 13:30N 31°24' E 032°19'0 0.0
2017-Aug-26 12:30N 31°24' E 032°19'0 0.0
2017-Aug-26 11:54N 31°24' E 032°19'0 0.1
2017-Aug-26 08:42N 31°25' E 032°19'0 0.6
2017-Aug-26 08:27N 31°25' E 032°18'5 7.8
2017-Aug-26 07:48N 31°29' E 032°16'1013.3
2017-Aug-26 07:02N 31°36' E 032°07'112.8
2017-Aug-26 06:59N 31°37' E 032°07'510.3
2017-Aug-26 06:30N 31°40' E 032°02'612.5
2017-Aug-26 06:00N 31°45' E 031°57'712.5
2017-Aug-26 05:28N 31°48' E 031°50'612.6
2017-Aug-26 05:00N 31°50' E 031°44'612.6
2017-Aug-26 04:31N 31°53' E 031°37'612.6
2017-Aug-26 04:00N 31°55' E 031°30'8512.9
2017-Aug-25 21:24N 32°23' E 029°55'78115.9
2017-Aug-23 20:16N 36°17' E 014°53'817.8
2017-Aug-23 19:50N 36°20' E 014°44'618.3
2017-Aug-23 19:30N 36°23' E 014°38'918.5
2017-Aug-23 19:00N 36°29' E 014°29'918.6
2017-Aug-23 18:30N 36°33' E 014°19'918.5
2017-Aug-23 18:00N 36°37' E 014°09'918.3
2017-Aug-23 17:30N 36°42' E 013°59'918.3
2017-Aug-23 17:00N 36°47' E 013°49'918.4
2017-Aug-23 16:30N 36°52' E 013°39'918.7
2017-Aug-23 16:00N 36°56' E 013°29'918.7
2017-Aug-23 15:30N 36°60' E 013°18'918.9
2017-Aug-23 15:00N 37°04' E 013°08'1918.9
2017-Aug-23 14:00N 37°13' E 012°47'918.9
2017-Aug-23 13:30N 37°18' E 012°37'1118.4
2017-Aug-23 12:54N 37°23' E 012°24'717.8
2017-Aug-23 12:30N 37°26' E 012°16'8917.6
2017-Aug-23 07:25N 38°04' E 010°33'818.0
2017-Aug-23 06:58N 38°02' E 010°23'1518.1
2017-Aug-23 06:09N 38°01' E 010°04'417.9
2017-Aug-23 05:55N 38°00' E 009°59'818.2
2017-Aug-23 05:30N 37°60' E 009°50'1018.4
2017-Aug-23 04:59N 37°59' E 009°38'918.4
2017-Aug-23 04:29N 37°57' E 009°26'918.3
2017-Aug-23 04:00N 37°56' E 009°15'918.1
2017-Aug-23 03:30N 37°56' E 009°03'918.0
2017-Aug-23 03:00N 37°55' E 008°52'917.9
2017-Aug-23 02:30N 37°54' E 008°41'917.8
2017-Aug-23 01:59N 37°52' E 008°29'918.3
2017-Aug-23 01:30N 37°52' E 008°18'9618.2
2017-Aug-22 20:14N 37°41' E 006°17'517.9
2017-Aug-22 19:56N 37°41' E 006°10'717.7
2017-Aug-22 19:30N 37°40' E 006°01'917.9
2017-Aug-22 19:00N 37°38' E 005°50'917.9
2017-Aug-22 18:30N 37°37' E 005°39'917.8
2017-Aug-22 18:00N 37°36' E 005°28'1017.4
2017-Aug-22 17:27N 37°36' E 005°15'817.5
2017-Aug-22 17:00N 37°34' E 005°06'917.4
2017-Aug-22 16:30N 37°33' E 004°55'817.0
2017-Aug-22 16:00N 37°31' E 004°44'917.4
2017-Aug-22 15:30N 37°31' E 004°33'1917.8
2017-Aug-22 14:26N 37°29' E 004°10'1717.6
2017-Aug-22 13:29N 37°27' E 003°49'917.7
2017-Aug-22 13:00N 37°25' E 003°38'1417.5
2017-Aug-22 12:12N 37°23' E 003°21'317.3
2017-Aug-22 12:00N 37°22' E 003°17'917.3
2017-Aug-22 11:28N 37°21' E 003°05'817.4
2017-Aug-22 10:59N 37°19' E 002°55'917.3
2017-Aug-22 10:29N 37°18' E 002°44'6117.0
2017-Aug-22 06:55N 37°03' E 001°30'716.2
2017-Aug-22 06:29N 37°02' E 001°22'816.1
2017-Aug-22 06:00N 37°01' E 001°12'916.8
2017-Aug-22 05:26N 36°58' E 001°01'1217.5
2017-Aug-22 04:45N 36°55' E 000°46'417.3
2017-Aug-22 04:30N 36°54' E 000°41'917.4
2017-Aug-22 04:00N 36°52' E 000°31'917.3
2017-Aug-22 03:28N 36°49' E 000°19'817.2
2017-Aug-22 03:00N 36°47' E 000°10'917.0
2017-Aug-22 02:30N 36°44' W 000°00'1317.0
2017-Aug-22 01:44N 36°41' W 000°16'417.2
2017-Aug-22 01:30N 36°40' W 000°21'917.3
2017-Aug-22 01:00N 36°37' W 000°31'917.3
2017-Aug-22 00:30N 36°35' W 000°41'917.1
2017-Aug-22 00:00N 36°32' W 000°52'817.1
2017-Aug-21 23:30N 36°30' W 001°02'917.0
2017-Aug-21 22:58N 36°27' W 001°12'817.0
2017-Aug-21 22:30N 36°25' W 001°22'917.2
2017-Aug-21 21:58N 36°22' W 001°33'1217.5
2017-Aug-21 21:17N 36°19' W 001°47'617.5
2017-Aug-21 20:58N 36°18' W 001°54'817.4
2017-Aug-21 20:30N 36°16' W 002°04'1017.6
2017-Aug-21 19:55N 36°14' W 002°16'918.1
2017-Aug-21 19:26N 36°13' W 002°27'13417.9
2017-Aug-21 11:55N 35°60' W 005°12'819.1
2017-Aug-21 11:30N 35°58' W 005°22'8 9.4
2017-Aug-21 10:41N 35°54' W 005°30'0 0.0
2017-Aug-20 22:42N 35°54' W 005°30'1 3.7
2017-Aug-20 22:21N 35°55' W 005°30'2 6.8
2017-Aug-20 22:00N 35°55' W 005°33'1 1.3
2017-Aug-20 21:11N 35°54' W 005°34'1 2.9
2017-Aug-20 21:00N 35°54' W 005°34'1 1.5
2017-Aug-20 20:30N 35°54' W 005°34'0 0.1
2017-Aug-20 20:00N 35°54' W 005°34'1 1.2
2017-Aug-20 19:28N 35°55' W 005°34'4 7.6
2017-Aug-20 19:00N 35°54' W 005°38'6 8.0
2017-Aug-20 18:14N 35°53' W 005°46'210.6
2017-Aug-20 17:59N 35°53' W 005°49'54 5.1
2017-Aug-20 07:19N 35°50' W 006°55'4 0.9
2017-Aug-20 02:38N 35°48' W 007°00'0 1.8
2017-Aug-20 02:28N 35°48' W 006°60'4 1.2
2017-Aug-19 22:43N 35°51' W 007°04'1 2.8
2017-Aug-19 22:30N 35°50' W 007°03'1 2.8
2017-Aug-19 21:59N 35°50' W 007°02'2 2.6
2017-Aug-19 21:11N 35°49' W 006°59'5 2.9
2017-Aug-19 19:28N 35°45' W 006°57'2 4.8
2017-Aug-19 19:00N 35°43' W 006°56'1 1.1
2017-Aug-19 18:30N 35°43' W 006°56'2 0.7
2017-Aug-19 16:18N 35°45' W 006°55'0 0.3
2017-Aug-19 15:37N 35°45' W 006°55'2 0.7
2017-Aug-19 13:22N 35°45' W 006°53'5512.7
2017-Aug-19 09:02N 36°07' W 007°55'214.9
2017-Aug-19 08:53N 36°08' W 007°58'1414.8
2017-Aug-19 07:55N 36°16' W 008°12'614.9
2017-Aug-19 07:30N 36°19' W 008°19'714.9
2017-Aug-19 07:00N 36°21' W 008°28'714.7
2017-Aug-19 06:30N 36°23' W 008°37'815.0
2017-Aug-19 06:00N 36°25' W 008°46'714.8
2017-Aug-19 05:30N 36°27' W 008°55'714.6
2017-Aug-19 05:01N 36°29' W 009°03'814.8
2017-Aug-19 04:30N 36°32' W 009°12'714.7
2017-Aug-19 04:00N 36°35' W 009°20'815.3
2017-Aug-19 03:30N 36°41' W 009°26'715.1
2017-Aug-19 03:00N 36°47' W 009°33'2515.3
2017-Aug-19 01:22N 37°11' W 009°41'615.2
2017-Aug-19 00:57N 37°17' W 009°43'715.2
2017-Aug-19 00:30N 37°24' W 009°45'714.9
2017-Aug-19 00:00N 37°31' W 009°48'714.5
2017-Aug-18 23:30N 37°38' W 009°50'714.9
2017-Aug-18 23:00N 37°45' W 009°51'815.4
2017-Aug-18 22:30N 37°53' W 009°53'815.1
2017-Aug-18 22:00N 38°00' W 009°55'714.8
2017-Aug-18 21:30N 38°07' W 009°57'714.7
2017-Aug-18 21:00N 38°14' W 009°59'714.8
2017-Aug-18 20:30N 38°21' W 010°02'714.9
2017-Aug-18 20:00N 38°29' W 010°05'816.5
2017-Aug-18 19:30N 38°37' W 010°06'815.3
2017-Aug-18 19:00N 38°44' W 010°07'715.0
2017-Aug-18 18:30N 38°52' W 010°07'815.2
2017-Aug-18 18:00N 38°59' W 010°08'815.2
2017-Aug-18 17:30N 39°07' W 010°08'714.9
2017-Aug-18 17:00N 39°15' W 010°08'815.1
2017-Aug-18 16:30N 39°22' W 010°08'815.1
2017-Aug-18 16:00N 39°30' W 010°08'815.0
2017-Aug-18 15:30N 39°37' W 010°08'714.9
2017-Aug-18 15:00N 39°45' W 010°07'714.8
2017-Aug-18 14:30N 39°52' W 010°07'1514.6
2017-Aug-18 13:30N 40°07' W 010°07'815.3
2017-Aug-18 13:00N 40°14' W 010°07'815.2
2017-Aug-18 12:27N 40°23' W 010°08'714.6
2017-Aug-18 11:59N 40°30' W 010°08'814.6
2017-Aug-18 11:26N 40°38' W 010°07'1014.7
2017-Aug-18 10:43N 40°48' W 010°07'314.7
2017-Aug-18 10:30N 40°51' W 010°07'814.9
2017-Aug-18 09:59N 40°59' W 010°07'  
Track history (hours):
 
Tides and Currents Weather Stations Pressure Air Temp Water Temp Dewpoint Dewpoint Depression Visibility Wind Speed Wind Dir Waves Ship Positions

Teno

Last reported at 2017-Aug-27 04:51 UTC. Time now 2017-Sep-19 22:42 UTC.
Position N 31°08' E 032°19'.
Warning: this ship's position is 23 days out of date.

Length 299 m; draft 12.7 m.

Type: Ship (hazmat cat A). MMSI: 636014646.

Date/timePositionNaut miles runAvg speedWind from/ knotsBaromVisibWave heightAir tempDewpointWater temp
2017-Aug-27 04:51N 31°08' E 032°19'3 8.3
2017-Aug-27 04:30N 31°11' E 032°20'3 7.0
2017-Aug-27 04:00N 31°14' E 032°21'912.7
2017-Aug-27 03:18N 31°23' E 032°23'310.1
2017-Aug-27 03:00N 31°26' E 032°24'3 7.0
2017-Aug-27 02:30N 31°25' E 032°20'1 2.3
2017-Aug-27 01:57N 31°24' E 032°19'0 0.0
2017-Aug-26 23:54N 31°24' E 032°19'0 0.0
2017-Aug-26 23:30N 31°24' E 032°19'0 0.0
2017-Aug-26 23:00N 31°24' E 032°19'0 0.0
2017-Aug-26 22:24N 31°24' E 032°19'0 0.0
2017-Aug-26 21:57N 31°24' E 032°19'0 0.0
2017-Aug-26 21:30N 31°24' E 032°19'0 0.0
2017-Aug-26 21:00N 31°24' E 032°19'0 0.0
2017-Aug-26 20:30N 31°24' E 032°19'0 0.0
2017-Aug-26 19:45N 31°24' E 032°19'0 0.1
2017-Aug-26 19:30N 31°24' E 032°19'0 0.0
2017-Aug-26 18:24N 31°24' E 032°19'0 0.0
2017-Aug-26 18:00N 31°24' E 032°19'0 0.0
2017-Aug-26 17:30N 31°24' E 032°19'0 0.0
2017-Aug-26 17:00N 31°24' E 032°19'0 0.0
2017-Aug-26 15:00N 31°24' E 032°19'0 0.0
2017-Aug-26 13:54N 31°24' E 032°19'0 0.0
2017-Aug-26 13:30N 31°24' E 032°19'0 0.0
2017-Aug-26 12:30N 31°24' E 032°19'0 0.0
2017-Aug-26 11:54N 31°24' E 032°19'0 0.1
2017-Aug-26 08:42N 31°25' E 032°19'0 0.6
2017-Aug-26 08:27N 31°25' E 032°18'5 7.8
2017-Aug-26 07:48N 31°29' E 032°16'1013.3
2017-Aug-26 07:02N 31°36' E 032°07'112.8
2017-Aug-26 06:59N 31°37' E 032°07'510.3
2017-Aug-26 06:30N 31°40' E 032°02'612.5
2017-Aug-26 06:00N 31°45' E 031°57'712.5
2017-Aug-26 05:28N 31°48' E 031°50'612.6
2017-Aug-26 05:00N 31°50' E 031°44'612.6
2017-Aug-26 04:31N 31°53' E 031°37'612.6
2017-Aug-26 04:00N 31°55' E 031°30'8512.9
2017-Aug-25 21:24N 32°23' E 029°55'78115.9
2017-Aug-23 20:16N 36°17' E 014°53'817.8
2017-Aug-23 19:50N 36°20' E 014°44'618.3
2017-Aug-23 19:30N 36°23' E 014°38'918.5
2017-Aug-23 19:00N 36°29' E 014°29'918.6
2017-Aug-23 18:30N 36°33' E 014°19'918.5
2017-Aug-23 18:00N 36°37' E 014°09'918.3
2017-Aug-23 17:30N 36°42' E 013°59'918.3
2017-Aug-23 17:00N 36°47' E 013°49'918.4
2017-Aug-23 16:30N 36°52' E 013°39'918.7
2017-Aug-23 16:00N 36°56' E 013°29'918.7
2017-Aug-23 15:30N 36°60' E 013°18'918.9
2017-Aug-23 15:00N 37°04' E 013°08'1918.9
2017-Aug-23 14:00N 37°13' E 012°47'918.9
2017-Aug-23 13:30N 37°18' E 012°37'1118.4
2017-Aug-23 12:54N 37°23' E 012°24'717.8
2017-Aug-23 12:30N 37°26' E 012°16'8917.6
2017-Aug-23 07:25N 38°04' E 010°33'818.0
2017-Aug-23 06:58N 38°02' E 010°23'1518.1
2017-Aug-23 06:09N 38°01' E 010°04'417.9
2017-Aug-23 05:55N 38°00' E 009°59'818.2
2017-Aug-23 05:30N 37°60' E 009°50'1018.4
2017-Aug-23 04:59N 37°59' E 009°38'918.4
2017-Aug-23 04:29N 37°57' E 009°26'918.3
2017-Aug-23 04:00N 37°56' E 009°15'918.1
2017-Aug-23 03:30N 37°56' E 009°03'918.0
2017-Aug-23 03:00N 37°55' E 008°52'917.9
2017-Aug-23 02:30N 37°54' E 008°41'917.8
2017-Aug-23 01:59N 37°52' E 008°29'918.3
2017-Aug-23 01:30N 37°52' E 008°18'9618.2
2017-Aug-22 20:14N 37°41' E 006°17'517.9
2017-Aug-22 19:56N 37°41' E 006°10'717.7
2017-Aug-22 19:30N 37°40' E 006°01'917.9
2017-Aug-22 19:00N 37°38' E 005°50'917.9
2017-Aug-22 18:30N 37°37' E 005°39'917.8
2017-Aug-22 18:00N 37°36' E 005°28'1017.4
2017-Aug-22 17:27N 37°36' E 005°15'817.5
2017-Aug-22 17:00N 37°34' E 005°06'917.4
2017-Aug-22 16:30N 37°33' E 004°55'817.0
2017-Aug-22 16:00N 37°31' E 004°44'917.4
2017-Aug-22 15:30N 37°31' E 004°33'1917.8
2017-Aug-22 14:26N 37°29' E 004°10'1717.6
2017-Aug-22 13:29N 37°27' E 003°49'917.7
2017-Aug-22 13:00N 37°25' E 003°38'1417.5
2017-Aug-22 12:12N 37°23' E 003°21'317.3
2017-Aug-22 12:00N 37°22' E 003°17'917.3
2017-Aug-22 11:28N 37°21' E 003°05'817.4
2017-Aug-22 10:59N 37°19' E 002°55'917.3
2017-Aug-22 10:29N 37°18' E 002°44'6117.0
2017-Aug-22 06:55N 37°03' E 001°30'716.2
2017-Aug-22 06:29N 37°02' E 001°22'816.1
2017-Aug-22 06:00N 37°01' E 001°12'916.8
2017-Aug-22 05:26N 36°58' E 001°01'1217.5
2017-Aug-22 04:45N 36°55' E 000°46'417.3
2017-Aug-22 04:30N 36°54' E 000°41'917.4
2017-Aug-22 04:00N 36°52' E 000°31'917.3
2017-Aug-22 03:28N 36°49' E 000°19'817.2
2017-Aug-22 03:00N 36°47' E 000°10'917.0
2017-Aug-22 02:30N 36°44' W 000°00'1317.0
2017-Aug-22 01:44N 36°41' W 000°16'417.2
2017-Aug-22 01:30N 36°40' W 000°21'917.3
2017-Aug-22 01:00N 36°37' W 000°31'917.3
2017-Aug-22 00:30N 36°35' W 000°41'917.1
2017-Aug-22 00:00N 36°32' W 000°52'817.1
2017-Aug-21 23:30N 36°30' W 001°02'917.0
2017-Aug-21 22:58N 36°27' W 001°12'817.0
2017-Aug-21 22:30N 36°25' W 001°22'917.2
2017-Aug-21 21:58N 36°22' W 001°33'1217.5
2017-Aug-21 21:17N 36°19' W 001°47'617.5
2017-Aug-21 20:58N 36°18' W 001°54'817.4
2017-Aug-21 20:30N 36°16' W 002°04'1017.6
2017-Aug-21 19:55N 36°14' W 002°16'918.1
2017-Aug-21 19:26N 36°13' W 002°27'13417.9
2017-Aug-21 11:55N 35°60' W 005°12'819.1
2017-Aug-21 11:30N 35°58' W 005°22'8 9.4
2017-Aug-21 10:41N 35°54' W 005°30'0 0.0
2017-Aug-20 22:42N 35°54' W 005°30'1 3.7
2017-Aug-20 22:21N 35°55' W 005°30'2 6.8
2017-Aug-20 22:00N 35°55' W 005°33'1 1.3
2017-Aug-20 21:11N 35°54' W 005°34'1 2.9
2017-Aug-20 21:00N 35°54' W 005°34'1 1.5
2017-Aug-20 20:30N 35°54' W 005°34'0 0.1
2017-Aug-20 20:00N 35°54' W 005°34'1 1.2
2017-Aug-20 19:28N 35°55' W 005°34'4 7.6
2017-Aug-20 19:00N 35°54' W 005°38'6 8.0
2017-Aug-20 18:14N 35°53' W 005°46'210.6
2017-Aug-20 17:59N 35°53' W 005°49'54 5.1
2017-Aug-20 07:19N 35°50' W 006°55'4 0.9
2017-Aug-20 02:38N 35°48' W 007°00'0 1.8
2017-Aug-20 02:28N 35°48' W 006°60'4 1.2
2017-Aug-19 22:43N 35°51' W 007°04'1 2.8
2017-Aug-19 22:30N 35°50' W 007°03'1 2.8
2017-Aug-19 21:59N 35°50' W 007°02'2 2.6
2017-Aug-19 21:11N 35°49' W 006°59'5 2.9
2017-Aug-19 19:28N 35°45' W 006°57'2 4.8
2017-Aug-19 19:00N 35°43' W 006°56'1 1.1
2017-Aug-19 18:30N 35°43' W 006°56'2 0.7
2017-Aug-19 16:18N 35°45' W 006°55'0 0.3
2017-Aug-19 15:37N 35°45' W 006°55'2 0.7
2017-Aug-19 13:22N 35°45' W 006°53'5512.7
2017-Aug-19 09:02N 36°07' W 007°55'214.9
2017-Aug-19 08:53N 36°08' W 007°58'1414.8
2017-Aug-19 07:55N 36°16' W 008°12'614.9
2017-Aug-19 07:30N 36°19' W 008°19'714.9
2017-Aug-19 07:00N 36°21' W 008°28'714.7
2017-Aug-19 06:30N 36°23' W 008°37'815.0
2017-Aug-19 06:00N 36°25' W 008°46'714.8
2017-Aug-19 05:30N 36°27' W 008°55'714.6
2017-Aug-19 05:01N 36°29' W 009°03'814.8
2017-Aug-19 04:30N 36°32' W 009°12'714.7
2017-Aug-19 04:00N 36°35' W 009°20'815.3
2017-Aug-19 03:30N 36°41' W 009°26'715.1
2017-Aug-19 03:00N 36°47' W 009°33'2515.3
2017-Aug-19 01:22N 37°11' W 009°41'615.2
2017-Aug-19 00:57N 37°17' W 009°43'715.2
2017-Aug-19 00:30N 37°24' W 009°45'714.9
2017-Aug-19 00:00N 37°31' W 009°48'714.5
2017-Aug-18 23:30N 37°38' W 009°50'714.9
2017-Aug-18 23:00N 37°45' W 009°51'815.4
2017-Aug-18 22:30N 37°53' W 009°53'815.1
2017-Aug-18 22:00N 38°00' W 009°55'714.8
2017-Aug-18 21:30N 38°07' W 009°57'714.7
2017-Aug-18 21:00N 38°14' W 009°59'714.8
2017-Aug-18 20:30N 38°21' W 010°02'714.9
2017-Aug-18 20:00N 38°29' W 010°05'816.5
2017-Aug-18 19:30N 38°37' W 010°06'815.3
2017-Aug-18 19:00N 38°44' W 010°07'715.0
2017-Aug-18 18:30N 38°52' W 010°07'815.2
2017-Aug-18 18:00N 38°59' W 010°08'815.2
2017-Aug-18 17:30N 39°07' W 010°08'714.9
2017-Aug-18 17:00N 39°15' W 010°08'815.1
2017-Aug-18 16:30N 39°22' W 010°08'815.1
2017-Aug-18 16:00N 39°30' W 010°08'815.0
2017-Aug-18 15:30N 39°37' W 010°08'714.9
2017-Aug-18 15:00N 39°45' W 010°07'714.8
2017-Aug-18 14:30N 39°52' W 010°07'1514.6
2017-Aug-18 13:30N 40°07' W 010°07'815.3
2017-Aug-18 13:00N 40°14' W 010°07'815.2
2017-Aug-18 12:27N 40°23' W 010°08'714.6
2017-Aug-18 11:59N 40°30' W 010°08'814.6
2017-Aug-18 11:26N 40°38' W 010°07'1014.7
2017-Aug-18 10:43N 40°48' W 010°07'314.7
2017-Aug-18 10:30N 40°51' W 010°07'814.9
2017-Aug-18 09:59N 40°59' W 010°07'  

Dump ship's entire track history